Ana Sayfa
METAR-TAF:

METAR-TAF

Havaalanları :

Volos, Yunanistan

Enlem: 39-13N, Boylam: 022-48E, yükseklik: 25 m

Güncel hava durumu gözlemi

Rapor saat 19:50 UTC de 27 dakika önce yapıldı.
Rüzgar batıdan 4 kt
Sıcaklık 17°C
Nem 68%
Basınç 1011 hPa
Görüş mesafesi 10 km veya daha fazla
3000 ft yükseklikte az bulutlu
8000 ft yükseklikte parçalı bulutlu

METAR: LGBL 311950Z 28004KT 9999 FEW030 SCT080 17/11 Q1011

Saat: 23:17 (20:17 UTC)

Tahmin

Rapor saat 17:00 UTC de 3 saat ve 17 dakika önce yapıldı.
Ayın 31'si saat 18 UTC'den ayın 01'si saat 03 UTC'ye kadar geçerli Tahmin
Rüzgar doğudan 10 kt
Görüş mesafesi 10 km veya daha fazla
2500 ft yükseklikte az bulutlu
8000 ft yükseklikte parçalı bulutlu
Dönüşüyor
ayın 31'si saat 19 UTC'den ayın 31'si saat 21 UTC'ye kadar
Rüzgar batıdan 5 kt

TAF: LGBL 311700Z 3118/0103 10010KT 9999 FEW025 SCT080 BECMG 3119/3121 28005KT

4.000'den fazla havaalanı için hava durumu gözlemleri ve tahminleri (METAR ve TAF raporları).

Kullanılabilir istasyonlar harita üzerinde sarı ve kırmızı noktalarla gösterilir.

İstasyonun adını görmek için fareyi noktanın üzerinde gezdirin.

Sonrasında hava gözlem ve tahminlerini görmek için tıklayın.

Haritayı değiştirmek için: yaklaştırmak için siyah artı işaretli yeşil düğmeye ve uzaklaştırmak için de eksi işaretli düğmeye hızla tıklayın; bitişik haritalar için yeşil okları kullanın.


METAR-TAF: